createdAt,value
2023-01-30T00:00:05.200Z,4.37
2023-01-30T00:15:06.647Z,6.33
2023-01-30T00:30:08.099Z,4.30
2023-01-30T00:45:09.566Z,5.40
2023-01-30T01:00:11.021Z,4.73
2023-01-30T01:15:12.546Z,4.23
2023-01-30T01:30:13.994Z,4.80
2023-01-30T01:45:15.681Z,5.70
2023-01-30T02:00:17.269Z,4.20
2023-01-30T02:15:19.080Z,4.80
2023-01-30T02:30:20.772Z,4.83
2023-01-30T02:45:22.264Z,4.53
2023-01-30T03:00:23.732Z,4.60
2023-01-30T03:15:25.177Z,3.90
2023-01-30T03:30:26.648Z,4.27
2023-01-30T03:45:28.122Z,3.90
2023-01-30T04:00:29.563Z,3.70
2023-01-30T04:15:31.151Z,3.30
2023-01-30T04:30:32.656Z,3.00
2023-01-30T04:45:34.148Z,3.33
2023-01-30T05:00:35.615Z,3.47
2023-01-30T05:15:37.165Z,3.00
2023-01-30T05:30:38.743Z,3.07
2023-01-30T05:45:40.234Z,2.80
2023-01-30T06:00:41.684Z,2.63
2023-01-30T06:15:43.203Z,2.70
2023-01-30T06:30:44.760Z,2.50
2023-01-30T06:45:46.377Z,2.30
2023-01-30T07:00:47.878Z,2.10
2023-01-30T07:15:49.340Z,1.90
2023-01-30T07:30:50.861Z,1.47
2023-01-30T07:45:52.368Z,1.80
2023-01-30T08:00:53.870Z,3.10
2023-01-30T08:15:55.330Z,1.80
2023-01-30T08:30:56.885Z,2.53
2023-01-30T08:45:58.629Z,1.90
2023-01-30T09:01:00.211Z,2.70
2023-01-30T09:16:01.722Z,1.67
2023-01-30T09:31:03.309Z,1.60
2023-01-30T09:46:04.926Z,2.20
2023-01-30T10:01:06.501Z,1.80
2023-01-30T10:16:07.999Z,2.67
2023-01-30T10:31:09.623Z,2.00
2023-01-30T10:46:11.244Z,2.00
2023-01-30T11:01:12.757Z,1.60
2023-01-30T11:16:14.242Z,1.80
2023-01-30T11:31:15.850Z,1.70
2023-01-30T11:46:17.335Z,2.50
2023-01-30T12:01:18.799Z,1.70
2023-01-30T12:16:20.300Z,1.77
2023-01-30T12:31:21.780Z,1.70
2023-01-30T12:46:23.303Z,2.43
2023-01-30T13:01:24.878Z,1.73
2023-01-30T13:16:26.408Z,1.80
2023-01-30T13:31:28.032Z,1.23
2023-01-30T13:46:29.623Z,1.53
2023-01-30T14:01:31.101Z,1.90
2023-01-30T14:16:32.612Z,1.80
2023-01-30T14:31:34.143Z,1.60
2023-01-30T14:46:35.711Z,1.50
2023-01-30T15:01:37.260Z,2.67
2023-01-30T15:16:38.777Z,2.30
2023-01-30T15:31:40.395Z,2.27
2023-01-30T15:46:41.904Z,1.50
2023-01-30T16:01:43.469Z,1.30
2023-01-30T16:16:45.050Z,1.50
2023-01-30T16:31:46.633Z,1.50
2023-01-30T16:46:48.196Z,1.40
2023-01-30T17:01:49.736Z,1.60
2023-01-30T17:16:51.256Z,1.27
2023-01-30T17:31:52.798Z,1.10
2023-01-30T17:46:54.431Z,2.30
2023-01-30T18:01:55.962Z,1.87
2023-01-30T18:16:57.507Z,1.70
2023-01-30T18:31:58.965Z,1.50
2023-01-30T18:47:00.444Z,1.53
2023-01-30T19:02:01.915Z,1.43
2023-01-30T19:17:03.395Z,1.57
2023-01-30T19:32:04.988Z,2.00
2023-01-30T19:47:07.690Z,1.93
2023-01-30T20:02:09.169Z,2.30
2023-01-30T20:17:10.671Z,1.97
2023-01-30T20:32:12.166Z,2.07
2023-01-30T20:47:13.854Z,1.30
2023-01-30T21:02:15.302Z,1.27
2023-01-30T21:17:16.786Z,1.50
2023-01-30T21:32:18.247Z,1.60
2023-01-30T21:47:19.704Z,1.20
2023-01-30T22:02:21.172Z,1.53
2023-01-30T22:17:22.680Z,1.47
2023-01-30T22:32:24.147Z,1.63
2023-01-30T22:47:25.615Z,1.30
2023-01-30T23:02:27.184Z,1.57
2023-01-30T23:17:28.651Z,1.77
2023-01-30T23:32:30.129Z,1.40
2023-01-30T23:47:31.587Z,1.83
